sensor_id;sensor_type;location;lat;lon;timestamp;pressure;altitude;pressure_sealevel;temperature;humidity
7052;BME280;3567;52.444;13.556;2023-04-06T00:00:04;101784.13;;;2.98;91.16
7052;BME280;3567;52.444;13.556;2023-04-06T00:02:30;101779.00;;;2.96;91.10
7052;BME280;3567;52.444;13.556;2023-04-06T00:04:55;101777.50;;;2.94;91.19
7052;BME280;3567;52.444;13.556;2023-04-06T00:07:21;101780.28;;;2.92;91.47
7052;BME280;3567;52.444;13.556;2023-04-06T00:09:46;101779.25;;;2.85;91.33
7052;BME280;3567;52.444;13.556;2023-04-06T00:12:12;101770.25;;;2.78;91.10
7052;BME280;3567;52.444;13.556;2023-04-06T00:14:37;101776.16;;;2.72;92.07
7052;BME280;3567;52.444;13.556;2023-04-06T00:17:03;101766.16;;;2.66;91.30
7052;BME280;3567;52.444;13.556;2023-04-06T00:19:28;101772.06;;;2.59;92.60
7052;BME280;3567;52.444;13.556;2023-04-06T00:21:53;101769.03;;;2.54;92.35
7052;BME280;3567;52.444;13.556;2023-04-06T00:24:19;101767.00;;;2.48;92.92
7052;BME280;3567;52.444;13.556;2023-04-06T00:26:44;101765.78;;;2.43;93.10
7052;BME280;3567;52.444;13.556;2023-04-06T00:29:10;101763.59;;;2.38;93.05
7052;BME280;3567;52.444;13.556;2023-04-06T00:31:35;101766.56;;;2.35;93.74
7052;BME280;3567;52.444;13.556;2023-04-06T00:34:01;101763.53;;;2.30;92.92
7052;BME280;3567;52.444;13.556;2023-04-06T00:36:26;101761.00;;;2.28;93.00
7052;BME280;3567;52.444;13.556;2023-04-06T00:38:52;101760.88;;;2.30;93.36
7052;BME280;3567;52.444;13.556;2023-04-06T00:41:17;101764.34;;;2.30;93.86
7052;BME280;3567;52.444;13.556;2023-04-06T00:43:43;101756.25;;;2.32;93.67
7052;BME280;3567;52.444;13.556;2023-04-06T00:46:09;101755.16;;;2.34;94.28
7052;BME280;3567;52.444;13.556;2023-04-06T00:48:34;101757.63;;;2.36;94.35
7052;BME280;3567;52.444;13.556;2023-04-06T00:51:01;101759.97;;;2.39;94.39
7052;BME280;3567;52.444;13.556;2023-04-06T00:53:26;101750.22;;;2.40;94.57
7052;BME280;3567;52.444;13.556;2023-04-06T00:55:52;101750.91;;;2.42;94.29
7052;BME280;3567;52.444;13.556;2023-04-06T00:58:17;101755.06;;;2.44;94.11
7052;BME280;3567;52.444;13.556;2023-04-06T01:00:43;101754.75;;;2.47;94.11
7052;BME280;3567;52.444;13.556;2023-04-06T01:03:08;101757.25;;;2.49;93.84
7052;BME280;3567;52.444;13.556;2023-04-06T01:05:35;101752.78;;;2.49;94.15
7052;BME280;3567;52.444;13.556;2023-04-06T01:08:05;101750.84;;;2.51;94.54
7052;BME280;3567;52.444;13.556;2023-04-06T01:10:30;101747.22;;;2.52;94.05
7052;BME280;3567;52.444;13.556;2023-04-06T01:12:56;101748.88;;;2.53;93.83
7052;BME280;3567;52.444;13.556;2023-04-06T01:15:22;101748.88;;;2.53;93.67
7052;BME280;3567;52.444;13.556;2023-04-06T01:17:48;101748.03;;;2.53;93.67
7052;BME280;3567;52.444;13.556;2023-04-06T01:20:13;101749.69;;;2.54;93.75
7052;BME280;3567;52.444;13.556;2023-04-06T01:22:39;101746.22;;;2.53;93.36
7052;BME280;3567;52.444;13.556;2023-04-06T01:25:05;101745.22;;;2.54;92.84
7052;BME280;3567;52.444;13.556;2023-04-06T01:27:31;101746.22;;;2.53;93.79
7052;BME280;3567;52.444;13.556;2023-04-06T01:29:56;101746.06;;;2.55;93.21
7052;BME280;3567;52.444;13.556;2023-04-06T01:32:22;101752.19;;;2.55;93.14
7052;BME280;3567;52.444;13.556;2023-04-06T01:34:47;101756.63;;;2.55;93.22
7052;BME280;3567;52.444;13.556;2023-04-06T01:37:13;101750.53;;;2.54;93.61
7052;BME280;3567;52.444;13.556;2023-04-06T01:39:38;101751.50;;;2.53;93.18
7052;BME280;3567;52.444;13.556;2023-04-06T01:42:04;101754.16;;;2.53;93.54
7052;BME280;3567;52.444;13.556;2023-04-06T01:44:30;101747.22;;;2.52;94.20
7052;BME280;3567;52.444;13.556;2023-04-06T01:46:56;101754.59;;;2.49;94.00
7052;BME280;3567;52.444;13.556;2023-04-06T01:49:22;101750.31;;;2.48;93.64
7052;BME280;3567;52.444;13.556;2023-04-06T01:51:47;101754.75;;;2.47;94.19
7052;BME280;3567;52.444;13.556;2023-04-06T01:54:12;101748.66;;;2.47;93.13
7052;BME280;3567;52.444;13.556;2023-04-06T01:56:38;101745.19;;;2.46;93.45
7052;BME280;3567;52.444;13.556;2023-04-06T01:59:03;101749.63;;;2.46;93.73
7052;BME280;3567;52.444;13.556;2023-04-06T02:01:29;101746.44;;;2.42;94.08
7052;BME280;3567;52.444;13.556;2023-04-06T02:03:54;101749.09;;;2.42;94.27
7052;BME280;3567;52.444;13.556;2023-04-06T02:06:20;101748.41;;;2.40;94.00
7052;BME280;3567;52.444;13.556;2023-04-06T02:08:45;101742.44;;;2.38;94.06
7052;BME280;3567;52.444;13.556;2023-04-06T02:11:11;101745.06;;;2.38;93.65
7052;BME280;3567;52.444;13.556;2023-04-06T02:13:36;101739.94;;;2.36;93.49
7052;BME280;3567;52.444;13.556;2023-04-06T02:16:02;101749.84;;;2.34;93.46
7052;BME280;3567;52.444;13.556;2023-04-06T02:18:29;101755.28;;;2.33;94.56
7052;BME280;3567;52.444;13.556;2023-04-06T02:20:55;101747.66;;;2.30;93.78
7052;BME280;3567;52.444;13.556;2023-04-06T02:23:20;101751.41;;;2.27;94.68
7052;BME280;3567;52.444;13.556;2023-04-06T02:25:46;101749.91;;;2.25;94.11
7052;BME280;3567;52.444;13.556;2023-04-06T02:28:11;101750.19;;;2.22;94.63
7052;BME280;3567;52.444;13.556;2023-04-06T02:30:37;101748.16;;;2.16;94.59
7052;BME280;3567;52.444;13.556;2023-04-06T02:33:02;101751.41;;;2.09;94.74
7052;BME280;3567;52.444;13.556;2023-04-06T02:35:29;101748.38;;;2.04;95.17
7052;BME280;3567;52.444;13.556;2023-04-06T02:37:55;101746.31;;;1.98;95.80
7052;BME280;3567;52.444;13.556;2023-04-06T02:40:20;101749.56;;;1.92;95.79
7052;BME280;3567;52.444;13.556;2023-04-06T02:42:46;101743.06;;;1.87;95.74
7052;BME280;3567;52.444;13.556;2023-04-06T02:45:11;101753.06;;;1.83;95.89
7052;BME280;3567;52.444;13.556;2023-04-06T02:47:36;101750.03;;;1.78;96.32
7052;BME280;3567;52.444;13.556;2023-04-06T02:50:02;101753.94;;;1.74;96.39
7052;BME280;3567;52.444;13.556;2023-04-06T02:52:28;101754.38;;;1.69;96.05
7052;BME280;3567;52.444;13.556;2023-04-06T02:54:53;101748.56;;;1.66;97.03
7052;BME280;3567;52.444;13.556;2023-04-06T02:57:18;101757.75;;;1.62;97.51
7052;BME280;3567;52.444;13.556;2023-04-06T02:59:44;101752.75;;;1.58;97.63
7052;BME280;3567;52.444;13.556;2023-04-06T03:02:09;101753.03;;;1.55;97.92
7052;BME280;3567;52.444;13.556;2023-04-06T03:04:35;101759.84;;;1.48;97.73
7052;BME280;3567;52.444;13.556;2023-04-06T03:07:00;101768.09;;;1.45;98.41
7052;BME280;3567;52.444;13.556;2023-04-06T03:09:26;101759.75;;;1.40;98.74
7052;BME280;3567;52.444;13.556;2023-04-06T03:11:52;101762.97;;;1.34;98.58
7052;BME280;3567;52.444;13.556;2023-04-06T03:14:17;101756.47;;;1.28;98.79
7052;BME280;3567;52.444;13.556;2023-04-06T03:16:47;101760.63;;;1.21;98.88
7052;BME280;3567;52.444;13.556;2023-04-06T03:19:12;101756.22;;;1.12;99.45
7052;BME280;3567;52.444;13.556;2023-04-06T03:21:37;101757.63;;;1.07;99.48
7052;BME280;3567;52.444;13.556;2023-04-06T03:24:04;101754.84;;;0.98;99.82
7052;BME280;3567;52.444;13.556;2023-04-06T03:26:29;101750.28;;;0.91;99.54
7052;BME280;3567;52.444;13.556;2023-04-06T03:28:55;101756.25;;;0.83;99.16
7052;BME280;3567;52.444;13.556;2023-04-06T03:31:20;101754.31;;;0.75;100.00
7052;BME280;3567;52.444;13.556;2023-04-06T03:33:45;101758.47;;;0.68;100.00
7052;BME280;3567;52.444;13.556;2023-04-06T03:36:11;101758.47;;;0.59;100.00
7052;BME280;3567;52.444;13.556;2023-04-06T03:38:36;101761.78;;;0.51;100.00
7052;BME280;3567;52.444;13.556;2023-04-06T03:41:02;101758.06;;;0.44;100.00
7052;BME280;3567;52.444;13.556;2023-04-06T03:43:27;101763.16;;;0.36;100.00
7052;BME280;3567;52.444;13.556;2023-04-06T03:45:52;101762.06;;;0.29;100.00
7052;BME280;3567;52.444;13.556;2023-04-06T03:48:18;101770.38;;;0.24;100.00
7052;BME280;3567;52.444;13.556;2023-04-06T03:50:43;101771.88;;;0.17;100.00
7052;BME280;3567;52.444;13.556;2023-04-06T03:53:08;101774.09;;;0.12;100.00
7052;BME280;3567;52.444;13.556;2023-04-06T03:55:34;101773.78;;;0.05;100.00
7052;BME280;3567;52.444;13.556;2023-04-06T03:57:59;101777.22;;;-0.04;100.00
7052;BME280;3567;52.444;13.556;2023-04-06T04:00:26;101784.13;;;-0.13;100.00
7052;BME280;3567;52.444;13.556;2023-04-06T04:02:52;101782.16;;;-0.20;100.00
7052;BME280;3567;52.444;13.556;2023-04-06T04:05:17;101794.06;;;-0.26;100.00
7052;BME280;3567;52.444;13.556;2023-04-06T04:07:43;101791.09;;;-0.33;100.00
7052;BME280;3567;52.444;13.556;2023-04-06T04:10:08;101785.81;;;-0.42;100.00
7052;BME280;3567;52.444;13.556;2023-04-06T04:12:34;101792.53;;;-0.49;100.00
7052;BME280;3567;52.444;13.556;2023-04-06T04:14:59;101799.03;;;-0.54;100.00
7052;BME280;3567;52.444;13.556;2023-04-06T04:17:25;101799.44;;;-0.58;100.00
7052;BME280;3567;52.444;13.556;2023-04-06T04:19:50;101800.78;;;-0.64;100.00
7052;BME280;3567;52.444;13.556;2023-04-06T04:22:15;101791.19;;;-0.65;100.00
7052;BME280;3567;52.444;13.556;2023-04-06T04:24:41;101796.75;;;-0.68;100.00
7052;BME280;3567;52.444;13.556;2023-04-06T04:27:06;101792.44;;;-0.69;100.00
7052;BME280;3567;52.444;13.556;2023-04-06T04:29:32;101800.44;;;-0.70;100.00
7052;BME280;3567;52.444;13.556;2023-04-06T04:31:57;101801.56;;;-0.73;100.00
7052;BME280;3567;52.444;13.556;2023-04-06T04:34:22;101796.53;;;-0.76;100.00
7052;BME280;3567;52.444;13.556;2023-04-06T04:36:52;101800.13;;;-0.77;100.00
7052;BME280;3567;52.444;13.556;2023-04-06T04:39:17;101802.06;;;-0.79;100.00
7052;BME280;3567;52.444;13.556;2023-04-06T04:41:42;101797.75;;;-0.80;100.00
7052;BME280;3567;52.444;13.556;2023-04-06T04:44:08;101805.66;;;-0.80;100.00
7052;BME280;3567;52.444;13.556;2023-04-06T04:46:33;101798.72;;;-0.81;100.00
7052;BME280;3567;52.444;13.556;2023-04-06T04:48:59;101793.47;;;-0.81;100.00
7052;BME280;3567;52.444;13.556;2023-04-06T04:51:24;101792.75;;;-0.83;100.00
7052;BME280;3567;52.444;13.556;2023-04-06T04:53:50;101798.16;;;-0.85;100.00
7052;BME280;3567;52.444;13.556;2023-04-06T04:56:15;101795.63;;;-0.86;100.00
7052;BME280;3567;52.444;13.556;2023-04-06T04:58:41;101795.63;;;-0.86;100.00
7052;BME280;3567;52.444;13.556;2023-04-06T05:01:06;101804.50;;;-0.87;100.00
7052;BME280;3567;52.444;13.556;2023-04-06T05:03:32;101800.91;;;-0.86;100.00
7052;BME280;3567;52.444;13.556;2023-04-06T05:05:58;101801.63;;;-0.84;100.00
7052;BME280;3567;52.444;13.556;2023-04-06T05:08:23;101801.47;;;-0.83;100.00
7052;BME280;3567;52.444;13.556;2023-04-06T05:10:49;101803.00;;;-0.80;100.00
7052;BME280;3567;52.444;13.556;2023-04-06T05:13:15;101800.13;;;-0.77;100.00
7052;BME280;3567;52.444;13.556;2023-04-06T05:15:41;101809.59;;;-0.74;100.00
7052;BME280;3567;52.444;13.556;2023-04-06T05:18:07;101805.84;;;-0.72;100.00
7052;BME280;3567;52.444;13.556;2023-04-06T05:20:34;101807.25;;;-0.68;100.00
7052;BME280;3567;52.444;13.556;2023-04-06T05:23:00;101808.41;;;-0.61;100.00
7052;BME280;3567;52.444;13.556;2023-04-06T05:25:25;101811.09;;;-0.51;100.00
7052;BME280;3567;52.444;13.556;2023-04-06T05:27:51;101813.06;;;-0.43;100.00
7052;BME280;3567;52.444;13.556;2023-04-06T05:30:17;101810.94;;;-0.29;100.00
7052;BME280;3567;52.444;13.556;2023-04-06T05:32:43;101817.66;;;-0.15;100.00
7052;BME280;3567;52.444;13.556;2023-04-06T05:35:09;101821.31;;;0.04;100.00
7052;BME280;3567;52.444;13.556;2023-04-06T05:37:35;101816.13;;;0.23;100.00
7052;BME280;3567;52.444;13.556;2023-04-06T05:40:00;101813.66;;;0.41;100.00
7052;BME280;3567;52.444;13.556;2023-04-06T05:42:26;101819.97;;;0.59;100.00
7052;BME280;3567;52.444;13.556;2023-04-06T05:44:52;101824.56;;;0.76;100.00
7052;BME280;3567;52.444;13.556;2023-04-06T05:47:17;101814.44;;;0.91;100.00
7052;BME280;3567;52.444;13.556;2023-04-06T05:49:43;101818.44;;;1.05;100.00
7052;BME280;3567;52.444;13.556;2023-04-06T05:52:09;101826.75;;;1.20;100.00
7052;BME280;3567;52.444;13.556;2023-04-06T05:54:36;101817.44;;;1.35;100.00
7052;BME280;3567;52.444;13.556;2023-04-06T05:57:02;101821.97;;;1.52;100.00
7052;BME280;3567;52.444;13.556;2023-04-06T05:59:30;101821.22;;;1.70;100.00
7052;BME280;3567;52.444;13.556;2023-04-06T06:01:55;101820.50;;;1.87;100.00
7052;BME280;3567;52.444;13.556;2023-04-06T06:04:21;101824.03;;;2.05;100.00
7052;BME280;3567;52.444;13.556;2023-04-06T06:06:46;101819.63;;;2.24;100.00
7052;BME280;3567;52.444;13.556;2023-04-06T06:09:11;101828.25;;;2.44;100.00
7052;BME280;3567;52.444;13.556;2023-04-06T06:11:37;101831.25;;;2.58;100.00
7052;BME280;3567;52.444;13.556;2023-04-06T06:14:02;101827.72;;;2.68;100.00
7052;BME280;3567;52.444;13.556;2023-04-06T06:16:27;101828.47;;;2.78;100.00
7052;BME280;3567;52.444;13.556;2023-04-06T06:18:53;101819.59;;;2.87;99.58
7052;BME280;3567;52.444;13.556;2023-04-06T06:21:18;101829.38;;;3.04;100.00
7052;BME280;3567;52.444;13.556;2023-04-06T06:23:44;101832.28;;;3.19;99.03
7052;BME280;3567;52.444;13.556;2023-04-06T06:26:09;101832.91;;;3.31;98.54
7052;BME280;3567;52.444;13.556;2023-04-06T06:28:35;101832.78;;;3.40;96.76
7052;BME280;3567;52.444;13.556;2023-04-06T06:31:01;101830.75;;;3.52;97.28
7052;BME280;3567;52.444;13.556;2023-04-06T06:33:26;101830.59;;;3.62;94.84
7052;BME280;3567;52.444;13.556;2023-04-06T06:35:52;101829.38;;;3.74;93.97
7052;BME280;3567;52.444;13.556;2023-04-06T06:38:17;101825.94;;;3.82;93.30
7052;BME280;3567;52.444;13.556;2023-04-06T06:40:45;101824.16;;;3.90;93.66
7052;BME280;3567;52.444;13.556;2023-04-06T06:43:11;101827.66;;;3.99;92.96
7052;BME280;3567;52.444;13.556;2023-04-06T06:45:36;101829.38;;;4.08;91.49
7052;BME280;3567;52.444;13.556;2023-04-06T06:48:01;101822.97;;;4.19;90.74
7052;BME280;3567;52.444;13.556;2023-04-06T06:50:27;101835.25;;;4.28;92.12
7052;BME280;3567;52.444;13.556;2023-04-06T06:52:52;101837.94;;;4.36;89.90
7052;BME280;3567;52.444;13.556;2023-04-06T06:55:18;101836.47;;;4.42;88.56
7052;BME280;3567;52.444;13.556;2023-04-06T06:57:44;101833.84;;;4.50;88.51
7052;BME280;3567;52.444;13.556;2023-04-06T07:00:12;101840.84;;;4.59;87.69
7052;BME280;3567;52.444;13.556;2023-04-06T07:02:38;101832.06;;;4.67;87.34
7052;BME280;3567;52.444;13.556;2023-04-06T07:05:04;101833.56;;;4.78;87.01
7052;BME280;3567;52.444;13.556;2023-04-06T07:07:32;101835.59;;;4.92;85.21
7052;BME280;3567;52.444;13.556;2023-04-06T07:09:58;101834.78;;;5.08;84.13
7052;BME280;3567;52.444;13.556;2023-04-06T07:12:24;101835.09;;;5.21;83.36
7052;BME280;3567;52.444;13.556;2023-04-06T07:14:49;101830.28;;;5.33;82.61
7052;BME280;3567;52.444;13.556;2023-04-06T07:17:15;101831.59;;;5.45;82.60
7052;BME280;3567;52.444;13.556;2023-04-06T07:19:40;101831.56;;;5.53;81.36
7052;BME280;3567;52.444;13.556;2023-04-06T07:22:06;101833.88;;;5.64;80.03
7052;BME280;3567;52.444;13.556;2023-04-06T07:24:32;101834.38;;;5.76;78.78
7052;BME280;3567;52.444;13.556;2023-04-06T07:26:58;101833.53;;;5.92;78.12
7052;BME280;3567;52.444;13.556;2023-04-06T07:29:25;101829.69;;;6.02;77.34
7052;BME280;3567;52.444;13.556;2023-04-06T07:31:50;101840.06;;;6.20;76.42
7052;BME280;3567;52.444;13.556;2023-04-06T07:34:16;101829.03;;;6.40;75.72
7052;BME280;3567;52.444;13.556;2023-04-06T07:36:41;101827.09;;;6.56;73.92
7052;BME280;3567;52.444;13.556;2023-04-06T07:39:07;101826.28;;;6.79;73.40
7052;BME280;3567;52.444;13.556;2023-04-06T07:41:32;101817.41;;;7.09;72.09
7052;BME280;3567;52.444;13.556;2023-04-06T07:43:58;101819.41;;;7.45;70.92
7052;BME280;3567;52.444;13.556;2023-04-06T07:46:24;101820.91;;;7.77;70.69
7052;BME280;3567;52.444;13.556;2023-04-06T07:48:49;101820.63;;;8.02;67.21
7052;BME280;3567;52.444;13.556;2023-04-06T07:51:15;101814.56;;;8.08;66.42
7052;BME280;3567;52.444;13.556;2023-04-06T07:53:43;101812.06;;;8.21;65.26
7052;BME280;3567;52.444;13.556;2023-04-06T07:56:09;101816.72;;;8.34;63.47
7052;BME280;3567;52.444;13.556;2023-04-06T07:58:35;101810.38;;;8.50;63.78
7052;BME280;3567;52.444;13.556;2023-04-06T08:01:01;101812.94;;;8.58;62.10
7052;BME280;3567;52.444;13.556;2023-04-06T08:03:26;101809.84;;;8.76;61.83
7052;BME280;3567;52.444;13.556;2023-04-06T08:05:52;101802.38;;;8.92;61.16
7052;BME280;3567;52.444;13.556;2023-04-06T08:08:18;101813.50;;;9.17;61.34
7052;BME280;3567;52.444;13.556;2023-04-06T08:10:43;101791.63;;;9.35;54.87
7052;BME280;3567;52.444;13.556;2023-04-06T08:13:09;101790.22;;;9.39;55.14
7052;BME280;3567;52.444;13.556;2023-04-06T08:15:34;101791.88;;;9.40;55.40
7052;BME280;3567;52.444;13.556;2023-04-06T08:17:59;101798.56;;;9.58;56.13
7052;BME280;3567;52.444;13.556;2023-04-06T08:20:25;101790.88;;;9.76;54.70
7052;BME280;3567;52.444;13.556;2023-04-06T08:22:50;101791.81;;;9.96;54.09
7052;BME280;3567;52.444;13.556;2023-04-06T08:25:16;101781.13;;;10.03;52.54
7052;BME280;3567;52.444;13.556;2023-04-06T08:27:41;101778.91;;;10.13;52.23
7052;BME280;3567;52.444;13.556;2023-04-06T08:30:07;101764.72;;;10.13;50.72
7052;BME280;3567;52.444;13.556;2023-04-06T08:32:32;101774.63;;;10.19;51.30
7052;BME280;3567;52.444;13.556;2023-04-06T08:34:57;101777.53;;;10.24;50.50
7052;BME280;3567;52.444;13.556;2023-04-06T08:37:23;101763.97;;;10.32;49.24
7052;BME280;3567;52.444;13.556;2023-04-06T08:39:48;101751.22;;;10.47;47.75
7052;BME280;3567;52.444;13.556;2023-04-06T08:42:19;101754.78;;;10.74;48.26
7052;BME280;3567;52.444;13.556;2023-04-06T08:44:46;101763.25;;;11.05;48.83
7052;BME280;3567;52.444;13.556;2023-04-06T08:47:12;101750.44;;;11.33;46.03
7052;BME280;3567;52.444;13.556;2023-04-06T08:49:38;101740.53;;;11.40;45.60
7052;BME280;3567;52.444;13.556;2023-04-06T08:52:06;101749.78;;;11.58;45.90
7052;BME280;3567;52.444;13.556;2023-04-06T08:54:33;101748.69;;;11.78;46.29
7052;BME280;3567;52.444;13.556;2023-04-06T08:56:59;101748.22;;;12.01;44.85
7052;BME280;3567;52.444;13.556;2023-04-06T08:59:26;101734.47;;;12.23;45.01
7052;BME280;3567;52.444;13.556;2023-04-06T09:01:53;101747.63;;;12.38;44.37
7052;BME280;3567;52.444;13.556;2023-04-06T09:04:19;101731.41;;;12.51;42.70
7052;BME280;3567;52.444;13.556;2023-04-06T09:06:45;101732.56;;;12.62;42.84
7052;BME280;3567;52.444;13.556;2023-04-06T09:09:10;101734.06;;;12.82;43.05
7052;BME280;3567;52.444;13.556;2023-04-06T09:11:49;101739.44;;;13.07;43.00
7052;BME280;3567;52.444;13.556;2023-04-06T09:14:16;101732.19;;;13.08;42.06
7052;BME280;3567;52.444;13.556;2023-04-06T09:16:44;101729.97;;;13.30;41.72
7052;BME280;3567;52.444;13.556;2023-04-06T09:19:13;101721.00;;;13.54;41.20
7052;BME280;3567;52.444;13.556;2023-04-06T09:21:38;101721.81;;;13.73;40.62
7052;BME280;3567;52.444;13.556;2023-04-06T09:24:06;101728.03;;;13.92;40.93
7052;BME280;3567;52.444;13.556;2023-04-06T09:26:32;101723.38;;;13.99;40.12
7052;BME280;3567;52.444;13.556;2023-04-06T09:28:59;101709.63;;;13.52;40.16
7052;BME280;3567;52.444;13.556;2023-04-06T09:31:30;101710.28;;;13.04;41.02
7052;BME280;3567;52.444;13.556;2023-04-06T09:33:58;101708.28;;;13.25;40.44
7052;BME280;3567;52.444;13.556;2023-04-06T09:36:35;101705.81;;;12.98;40.22
7052;BME280;3567;52.444;13.556;2023-04-06T09:39:04;101707.91;;;13.40;40.19
7052;BME280;3567;52.444;13.556;2023-04-06T09:41:36;101716.19;;;13.93;40.13
7052;BME280;3567;52.444;13.556;2023-04-06T09:44:11;101702.97;;;14.22;39.35
7052;BME280;3567;52.444;13.556;2023-04-06T09:46:41;101683.72;;;14.48;37.68
7052;BME280;3567;52.444;13.556;2023-04-06T09:49:08;101683.66;;;14.55;37.62
7052;BME280;3567;52.444;13.556;2023-04-06T09:51:40;101673.56;;;14.74;37.75
7052;BME280;3567;52.444;13.556;2023-04-06T09:54:07;101691.19;;;15.00;38.25
7052;BME280;3567;52.444;13.556;2023-04-06T09:56:54;101682.25;;;15.11;36.55
7052;BME280;3567;52.444;13.556;2023-04-06T09:59:35;101678.63;;;15.05;38.19
7052;BME280;3567;52.444;13.556;2023-04-06T10:02:05;101680.03;;;14.96;37.91
7052;BME280;3567;52.444;13.556;2023-04-06T10:04:43;101670.53;;;14.70;37.12
7052;BME280;3567;52.444;13.556;2023-04-06T10:07:10;101669.25;;;14.73;37.69
7052;BME280;3567;52.444;13.556;2023-04-06T10:09:37;101660.09;;;14.85;36.59
7052;BME280;3567;52.444;13.556;2023-04-06T10:12:06;101658.22;;;14.86;36.07
7052;BME280;3567;52.444;13.556;2023-04-06T10:14:35;101667.31;;;14.08;36.47
7052;BME280;3567;52.444;13.556;2023-04-06T10:17:05;101672.34;;;13.38;37.89
7052;BME280;3567;52.444;13.556;2023-04-06T10:22:57;101682.38;;;12.55;39.59
7052;BME280;3567;52.444;13.556;2023-04-06T10:25:31;101674.41;;;13.17;38.96
7052;BME280;3567;52.444;13.556;2023-04-06T10:28:07;101682.25;;;13.92;37.78
7052;BME280;3567;52.444;13.556;2023-04-06T10:30:34;101665.38;;;14.27;35.51
7052;BME280;3567;52.444;13.556;2023-04-06T10:33:00;101652.22;;;14.19;35.21
7052;BME280;3567;52.444;13.556;2023-04-06T10:35:37;101646.81;;;14.07;33.06
7052;BME280;3567;52.444;13.556;2023-04-06T10:38:04;101645.09;;;14.24;33.57
7052;BME280;3567;52.444;13.556;2023-04-06T10:40:30;101644.59;;;14.57;34.67
7052;BME280;3567;52.444;13.556;2023-04-06T10:43:10;101646.00;;;14.06;33.61
7052;BME280;3567;52.444;13.556;2023-04-06T10:45:36;101646.56;;;13.48;34.53
7052;BME280;3567;52.444;13.556;2023-04-06T10:48:16;101645.97;;;13.03;35.23
7052;BME280;3567;52.444;13.556;2023-04-06T10:50:47;101646.25;;;13.38;35.54
7052;BME280;3567;52.444;13.556;2023-04-06T10:53:21;101649.38;;;13.17;35.37
7052;BME280;3567;52.444;13.556;2023-04-06T10:55:47;101644.84;;;12.92;36.06
7052;BME280;3567;52.444;13.556;2023-04-06T10:58:14;101653.31;;;13.14;36.79
7052;BME280;3567;52.444;13.556;2023-04-06T11:00:47;101644.59;;;12.75;35.39
7052;BME280;3567;52.444;13.556;2023-04-06T11:03:13;101649.63;;;12.40;37.09
7052;BME280;3567;52.444;13.556;2023-04-06T11:05:43;101651.31;;;12.03;37.55
7052;BME280;3567;52.444;13.556;2023-04-06T11:08:08;101650.94;;;11.99;37.78
7052;BME280;3567;52.444;13.556;2023-04-06T11:10:34;101654.00;;;12.03;37.40
7052;BME280;3567;52.444;13.556;2023-04-06T11:13:00;101650.50;;;12.02;37.79
7052;BME280;3567;52.444;13.556;2023-04-06T11:15:25;101646.53;;;12.12;38.12
7052;BME280;3567;52.444;13.556;2023-04-06T11:17:51;101640.19;;;11.99;37.07
7052;BME280;3567;52.444;13.556;2023-04-06T11:20:16;101642.16;;;11.72;37.24
7052;BME280;3567;52.444;13.556;2023-04-06T11:22:52;101631.91;;;11.63;37.66
7052;BME280;3567;52.444;13.556;2023-04-06T11:25:18;101641.66;;;11.50;37.14
7052;BME280;3567;52.444;13.556;2023-04-06T11:27:45;101641.03;;;11.48;38.74
7052;BME280;3567;52.444;13.556;2023-04-06T11:30:12;101643.97;;;11.40;38.36
7052;BME280;3567;52.444;13.556;2023-04-06T11:32:45;101637.75;;;11.46;39.34
7052;BME280;3567;52.444;13.556;2023-04-06T11:35:23;101647.56;;;12.11;38.97
7052;BME280;3567;52.444;13.556;2023-04-06T11:37:49;101647.09;;;12.45;39.07
7052;BME280;3567;52.444;13.556;2023-04-06T11:40:15;101640.91;;;12.95;38.58
7052;BME280;3567;52.444;13.556;2023-04-06T11:42:41;101622.75;;;13.45;36.43
7052;BME280;3567;52.444;13.556;2023-04-06T11:45:07;101613.16;;;13.68;35.40
7052;BME280;3567;52.444;13.556;2023-04-06T11:47:34;101617.47;;;13.87;35.39
7052;BME280;3567;52.444;13.556;2023-04-06T11:50:13;101606.41;;;14.60;34.21
7052;BME280;3567;52.444;13.556;2023-04-06T11:52:40;101593.03;;;14.77;34.80
7052;BME280;3567;52.444;13.556;2023-04-06T11:55:16;101599.19;;;15.53;34.09
7052;BME280;3567;52.444;13.556;2023-04-06T11:57:42;101585.59;;;16.05;33.21
7052;BME280;3567;52.444;13.556;2023-04-06T12:00:09;101574.13;;;15.98;32.33
7052;BME280;3567;52.444;13.556;2023-04-06T12:02:36;101573.31;;;15.40;31.61
7052;BME280;3567;52.444;13.556;2023-04-06T12:05:03;101575.19;;;14.64;32.24
7052;BME280;3567;52.444;13.556;2023-04-06T12:07:32;101576.41;;;14.03;32.20
7052;BME280;3567;52.444;13.556;2023-04-06T12:09:58;101581.66;;;13.38;32.52
7052;BME280;3567;52.444;13.556;2023-04-06T12:12:24;101585.41;;;13.00;33.99
7052;BME280;3567;52.444;13.556;2023-04-06T12:14:50;101586.34;;;12.88;34.39
7052;BME280;3567;52.444;13.556;2023-04-06T12:17:16;101596.47;;;12.67;35.46
7052;BME280;3567;52.444;13.556;2023-04-06T12:19:41;101598.25;;;12.55;35.49
7052;BME280;3567;52.444;13.556;2023-04-06T12:22:07;101599.00;;;12.62;35.76
7052;BME280;3567;52.444;13.556;2023-04-06T12:24:33;101604.09;;;12.45;36.26
7052;BME280;3567;52.444;13.556;2023-04-06T12:26:58;101602.38;;;12.57;36.40
7052;BME280;3567;52.444;13.556;2023-04-06T12:29:26;101591.28;;;12.47;35.99
7052;BME280;3567;52.444;13.556;2023-04-06T12:31:52;101612.50;;;12.55;37.32
7052;BME280;3567;52.444;13.556;2023-04-06T12:34:18;101610.78;;;13.04;37.60
7052;BME280;3567;52.444;13.556;2023-04-06T12:36:43;101601.97;;;13.52;36.45
7052;BME280;3567;52.444;13.556;2023-04-06T12:39:09;101595.31;;;13.36;35.64
7052;BME280;3567;52.444;13.556;2023-04-06T12:41:34;101590.03;;;13.48;35.66
7052;BME280;3567;52.444;13.556;2023-04-06T12:44:00;101591.53;;;13.26;35.52
7052;BME280;3567;52.444;13.556;2023-04-06T12:46:26;101590.00;;;12.93;36.15
7052;BME280;3567;52.444;13.556;2023-04-06T12:48:52;101589.78;;;12.76;35.78
7052;BME280;3567;52.444;13.556;2023-04-06T12:51:21;101587.22;;;12.63;36.25
7052;BME280;3567;52.444;13.556;2023-04-06T12:53:47;101587.59;;;12.67;37.37
7052;BME280;3567;52.444;13.556;2023-04-06T12:56:14;101594.75;;;13.16;38.23
7052;BME280;3567;52.444;13.556;2023-04-06T12:58:40;101588.78;;;13.32;37.31
7052;BME280;3567;52.444;13.556;2023-04-06T13:01:07;101581.47;;;13.21;37.07